METAR AND TAF INFORMATION
METAR FOR SABE
ADDS - METARS form results

(0048 UTC 24 April 2018)
Data provider http://aviationweather.gov/adds/metars/
 
METAR text: SABE 240000Z 13010KT 9999 SCT020 20/16 Q1020 NOSIG
Conditions at: SABE (AEROPARQUE(CIV/M, AR) observed 0000 UTC 24 April 2018
Temperature: 20.0°C (68°F)
Dewpoint: 16.0°C (61°F) [RH = 78%]
Pressure (altimeter): 30.12 inches Hg (1020.0 mb)
Winds: from the SE (130 degrees) at 12 MPH (10 knots; 5.2 m/s)
Visibility: 6 or more miles (10+ km)
Ceiling: at least 12,000 feet AGL
Clouds: scattered clouds at 2000 feet AGL
Weather: no significant weather observed at this time

Forecast for: SABE (AEROPARQUE(CIV/M, AR)
Text: TAF SABE 232300Z 2400/2424 14015KT 9999 BKN020 TX22/2418Z TN19/2408Z
Forecast period: 0000 to 0400 UTC 24 April 2018
Forecast type: FROM: standard forecast or significant change
Winds: from the SE (140 degrees) at 17 MPH (15 knots; 7.8 m/s)
Visibility: 6 or more miles (10+ km)
Ceiling: 2000 feet AGL
Clouds: broken clouds at 2000 feet AGL
Weather: no significant weather forecast for this period
Forecast for: SABE (AEROPARQUE(CIV/M, AR)
Text: TAF SABE 232300Z 2400/2424 14015KT 9999 BKN020 TX22/2418Z TN19/2408Z
Forecast period: 0000 to 0400 UTC 24 April 2018
Forecast type: FROM: standard forecast or significant change
Winds: from the SE (140 degrees) at 17 MPH (15 knots; 7.8 m/s)
Visibility: 6 or more miles (10+ km)
Ceiling: 2000 feet AGL
Clouds: broken clouds at 2000 feet AGL
Weather: no significant weather forecast for this period
Forecast for: SABE (AEROPARQUE(CIV/M, AR)
Text: TAF SABE 232300Z 2400/2424 14015KT 9999 BKN020 TX22/2418Z TN19/2408Z
Forecast period: 0400 to 0600 UTC 24 April 2018
Forecast type: BECOMING: Conditions expected to become as follows by 0700 UTC 24 April 2018
Winds: from the SSE (160 degrees) at 12 MPH (10 knots; 5.2 m/s)
Visibility: 6 or more miles (10+ km)
Ceiling: 1000 feet AGL
Clouds: broken clouds at 1000 feet AGL
broken clouds at 3000 feet AGL
Weather: no significant weather forecast for this period
Forecast for: SABE (AEROPARQUE(CIV/M, AR)
Text: TAF SABE 232300Z 2400/2424 14015KT 9999 BKN020 TX22/2418Z TN19/2408Z
Forecast period: 0400 to 0600 UTC 24 April 2018
Forecast type: BECOMING: Conditions expected to become as follows by 0700 UTC 24 April 2018
Winds: from the SSE (160 degrees) at 12 MPH (10 knots; 5.2 m/s)
Visibility: 6 or more miles (10+ km)
Ceiling: 1000 feet AGL
Clouds: broken clouds at 1000 feet AGL
broken clouds at 3000 feet AGL
Weather: no significant weather forecast for this period
Forecast for: SABE (AEROPARQUE(CIV/M, AR)
Text: TAF SABE 232300Z 2400/2424 14015KT 9999 BKN020 TX22/2418Z TN19/2408Z
Forecast period: 0600 to 1300 UTC 24 April 2018
Forecast type: BECOMING: Conditions expected to become as follows by 0800 UTC 24 April 2018
Winds: from the SSE (160 degrees) at 12 MPH (10 knots; 5.2 m/s)
Visibility: 2.49 miles (4.01 km)
Ceiling: 1000 feet AGL
Clouds: overcast cloud deck at 1000 feet AGL
Weather: DZ BR  (drizzle, mist)
Forecast for: SABE (AEROPARQUE(CIV/M, AR)
Text: TAF SABE 232300Z 2400/2424 14015KT 9999 BKN020 TX22/2418Z TN19/2408Z
Forecast period: 0600 to 1300 UTC 24 April 2018
Forecast type: BECOMING: Conditions expected to become as follows by 0800 UTC 24 April 2018
Winds: from the SSE (160 degrees) at 12 MPH (10 knots; 5.2 m/s)
Visibility: 2.49 miles (4.01 km)
Ceiling: 1000 feet AGL
Clouds: overcast cloud deck at 1000 feet AGL
Weather: DZ BR  (drizzle, mist)
Forecast for: SABE (AEROPARQUE(CIV/M, AR)
Text: TAF SABE 232300Z 2400/2424 14015KT 9999 BKN020 TX22/2418Z TN19/2408Z
Forecast period: 1300 UTC 24 April 2018 to 0000 UTC 25 April 2018
Forecast type: BECOMING: Conditions expected to become as follows by 1500 UTC 24 April 2018
Winds: from the ESE (110 degrees) at 12 MPH (10 knots; 5.2 m/s)
Visibility: 6 or more miles (10+ km)
Ceiling: 3000 feet AGL
Clouds: broken clouds at 3000 feet AGL
Weather: DZ BR  (drizzle, mist)
Forecast for: SABE (AEROPARQUE(CIV/M, AR)
Text: TAF SABE 232300Z 2400/2424 14015KT 9999 BKN020 TX22/2418Z TN19/2408Z
Forecast period: 1300 UTC 24 April 2018 to 0000 UTC 25 April 2018
Forecast type: BECOMING: Conditions expected to become as follows by 1500 UTC 24 April 2018
Winds: from the ESE (110 degrees) at 12 MPH (10 knots; 5.2 m/s)
Visibility: 6 or more miles (10+ km)
Ceiling: 3000 feet AGL
Clouds: broken clouds at 3000 feet AGL
Weather: DZ BR  (drizzle, mist)

 AIRPORT MAP

 RUNWAY INFORMATION
Runway 13 Runway length 6890 ft Runway width 131 ft
Runway elevation 18 ft Runway displaced threshold 0 ft Runway heading 124
Runway 31 Runway length 6890 ft Runway width 131 ft
Runway elevation 15 ft Runway displaced threshold 417 ft Runway heading 304

 AIRPORT FREQUENCIES
Type APP Name APP Frequency 120.6 MHZ
Type ATIS Name ATIS Frequency 127.6 MHZ
Type CLD Name CLNC DEL Frequency 129.3 MHZ
Type GND Name GND Frequency 121.9 MHZ
Type TWR Name TWR Frequency 118.85 MHZ

 AIRPORT NEAR NAVIGATION AIDS
Type NDB Name Aeroparque Jorge Newbery Frequency 260 KHZ